Airfield :







YOU CAN JOIN US ON...

 
LOGIN :

Register | Disclaimer

   EN    FR    IT 

 









Legend :    VFR   Marginal VFR   IFR   Intensive IFR   Very Intensive IFR
Visi :
Ceiling :
>= 8 km
>= 3000ft
5 to 8 km
1000 to 3000 ft
1500m to 5 km
500 to 1000 ft
800 to 1500m
200 to 500 ft
< 800m
< 200 ft
Symbols :   Thunderstorms  Fog  Heavy snow  Heavy precipitations  Wind > 20 kt






- Airport Elevation : 403 ft
- IATA code : YKG


CYAS - Kangirsuk

CURRENT METAR :
  • 092100Z 26030G37KT 15SM DRSN FEW018 M18/M21 A2959 RMK SC1 SLP036

EXPIRED METARs :
  • 092000Z 25031G38KT 15SM DRSN FEW018 M17/M19 A2955 RMK SC2 SLP022
  • 091900Z 27023G34KT 15SM DRSN FEW018 M16/M19 A2951 RMK SC2 RESN SLP009

TAF TAF CYAS
Valid from the 09 at 15:00 until the 09 at 22:00 UTC


091438Z 0915/0922 26025G35KT P6SM FEW012
TEMPO 0915/0921 2SM -SN BLSN BKN012 RMK NXT FCST WILL BE ISSUED AT 101445Z



MET'MAP, your aeronautical weather chart ! - Copyright ORBIFLY December 2007 - Disclaimer

ORBIFLY MET'MAP TEAM :

Programming & Development : Alexandra Zaïnal
Concept & original design : Baudouin d'Aumeries
Assistance for programming : Marc-Olivier Méhu
Technical & hardware support : Manuel Goepfert

Contact : metmap@orbifly.com




SOURCES & CREDITS :

   NOAA